createdAt,value
2023-02-18T00:01:15.551Z,21.17
2023-02-18T00:03:42.351Z,21.58
2023-02-18T00:06:15.865Z,21.52
2023-02-18T00:08:44.181Z,9.68
2023-02-18T00:11:11.102Z,14.43
2023-02-18T00:13:37.743Z,15.93
2023-02-18T00:16:10.761Z,26.77
2023-02-18T00:18:38.465Z,13.95
2023-02-18T00:21:07.169Z,10.68
2023-02-18T00:23:34.447Z,24.83
2023-02-18T00:26:02.567Z,25.73
2023-02-18T00:28:29.133Z,12.32
2023-02-18T00:30:55.702Z,22.98
2023-02-18T00:33:22.734Z,15.88
2023-02-18T00:35:49.630Z,14.98
2023-02-18T00:38:16.793Z,15.75
2023-02-18T00:40:43.520Z,22.63
2023-02-18T00:43:10.954Z,13.25
2023-02-18T00:45:37.437Z,19.63
2023-02-18T00:48:03.995Z,11.98
2023-02-18T00:50:30.474Z,25.08
2023-02-18T00:52:56.946Z,22.95
2023-02-18T00:55:23.408Z,13.18
2023-02-18T00:57:49.862Z,15.43
2023-02-18T01:00:16.806Z,23.15
2023-02-18T01:02:43.879Z,33.35
2023-02-18T01:05:10.412Z,11.68
2023-02-18T01:07:36.860Z,21.35
2023-02-18T01:10:04.655Z,33.35
2023-02-18T01:12:31.144Z,24.83
2023-02-18T01:14:57.611Z,16.23
2023-02-18T01:17:24.104Z,27.73
2023-02-18T01:19:50.607Z,32.28
2023-02-18T01:22:17.218Z,15.15
2023-02-18T01:24:45.417Z,15.20
2023-02-18T01:27:12.873Z,32.30
2023-02-18T01:29:39.386Z,17.38
2023-02-18T01:32:06.032Z,18.45
2023-02-18T01:34:32.670Z,21.98
2023-02-18T01:37:01.208Z,16.20
2023-02-18T01:39:27.698Z,25.23
2023-02-18T01:41:54.158Z,25.23
2023-02-18T01:44:23.616Z,15.32
2023-02-18T01:46:50.359Z,27.13
2023-02-18T01:49:22.714Z,13.18
2023-02-18T01:51:54.149Z,30.02
2023-02-18T01:54:32.773Z,28.20
2023-02-18T01:57:05.207Z,14.10
2023-02-18T01:59:37.159Z,29.80
2023-02-18T02:02:06.035Z,21.30
2023-02-18T02:04:32.663Z,24.33
2023-02-18T02:06:59.293Z,17.38
2023-02-18T02:09:28.834Z,19.75
2023-02-18T02:12:10.671Z,19.40
2023-02-18T02:14:43.145Z,13.68
2023-02-18T02:17:26.983Z,27.83
2023-02-18T02:20:29.290Z,17.23
2023-02-18T02:23:23.208Z,21.55
2023-02-18T02:26:11.490Z,11.02
2023-02-18T02:29:01.395Z,17.73
2023-02-18T02:32:09.213Z,24.58
2023-02-18T02:35:06.646Z,6.93
2023-02-18T02:37:48.709Z,13.20
2023-02-18T02:40:36.750Z,16.00
2023-02-18T02:43:35.414Z,16.20
2023-02-18T02:46:19.762Z,17.10
2023-02-18T02:48:58.733Z,15.73
2023-02-18T02:51:46.913Z,10.63
2023-02-18T02:54:25.305Z,8.35
2023-02-18T02:57:25.023Z,20.05
2023-02-18T03:00:00.272Z,12.43
2023-02-18T03:05:20.407Z,14.73
2023-02-18T03:08:12.965Z,16.58
2023-02-18T03:10:56.945Z,13.25
2023-02-18T03:13:44.937Z,10.32
2023-02-18T03:16:24.115Z,13.30
2023-02-18T03:19:06.610Z,10.27
2023-02-18T03:21:39.858Z,11.98
2023-02-18T03:24:18.718Z,16.23
2023-02-18T03:26:52.428Z,18.38
2023-02-18T03:29:21.230Z,10.65
2023-02-18T03:31:52.876Z,13.15
2023-02-18T03:34:33.952Z,9.50
2023-02-18T03:37:01.584Z,10.57
2023-02-18T03:39:32.171Z,15.82
2023-02-18T03:41:58.642Z,13.23
2023-02-18T03:44:26.043Z,15.45
2023-02-18T03:46:53.187Z,16.80
2023-02-18T03:49:19.718Z,10.43
2023-02-18T03:51:47.199Z,8.35
2023-02-18T03:54:14.610Z,9.43
2023-02-18T03:56:41.332Z,17.45
2023-02-18T03:59:07.827Z,10.20
2023-02-18T04:01:35.692Z,18.38
2023-02-18T04:04:03.189Z,20.10
2023-02-18T04:06:29.769Z,21.80
2023-02-18T04:08:56.236Z,12.48
2023-02-18T04:11:22.785Z,17.92
2023-02-18T04:13:49.322Z,15.40
2023-02-18T04:16:16.055Z,14.07
2023-02-18T04:18:42.602Z,17.77
2023-02-18T04:21:09.284Z,19.38
2023-02-18T04:23:35.744Z,13.30
2023-02-18T04:26:02.222Z,14.05
2023-02-18T04:28:28.673Z,28.05
2023-02-18T04:30:55.175Z,11.40
2023-02-18T04:33:21.682Z,13.65
2023-02-18T04:35:48.134Z,10.50
2023-02-18T04:38:14.618Z,13.45
2023-02-18T04:40:41.162Z,14.23
2023-02-18T04:43:07.654Z,15.77
2023-02-18T04:45:34.233Z,10.60
2023-02-18T04:48:00.670Z,13.35
2023-02-18T04:50:27.241Z,19.17
2023-02-18T04:52:53.759Z,16.25
2023-02-18T04:55:20.193Z,19.77
2023-02-18T04:57:46.732Z,18.48
2023-02-18T05:00:18.528Z,12.40
2023-02-18T05:02:46.098Z,13.20
2023-02-18T05:05:14.270Z,15.25
2023-02-18T05:07:42.316Z,12.18
2023-02-18T05:10:11.747Z,10.63
2023-02-18T05:12:38.297Z,12.90
2023-02-18T05:15:05.198Z,9.27
2023-02-18T05:17:31.807Z,11.57
2023-02-18T05:19:58.565Z,9.60
2023-02-18T05:22:25.093Z,11.55
2023-02-18T05:24:51.576Z,7.07
2023-02-18T05:27:18.119Z,7.13
2023-02-18T05:29:44.628Z,6.65
2023-02-18T05:32:11.289Z,8.20
2023-02-18T05:34:37.761Z,7.18
2023-02-18T05:37:04.305Z,5.65
2023-02-18T05:39:30.773Z,9.80
2023-02-18T05:41:57.290Z,5.57
2023-02-18T05:44:30.390Z,7.55
2023-02-18T05:46:58.776Z,10.40
2023-02-18T05:49:25.831Z,4.68
2023-02-18T05:51:52.348Z,5.82
2023-02-18T05:54:18.814Z,8.15
2023-02-18T05:56:45.299Z,8.10
2023-02-18T05:59:11.966Z,7.05
2023-02-18T06:01:38.613Z,9.57
2023-02-18T06:04:05.218Z,4.35
2023-02-18T06:06:32.152Z,3.70
2023-02-18T06:08:58.711Z,4.85
2023-02-18T06:11:25.189Z,7.38
2023-02-18T06:13:51.683Z,5.25
2023-02-18T06:16:18.223Z,6.38
2023-02-18T06:18:44.799Z,7.32
2023-02-18T06:21:11.352Z,4.60
2023-02-18T06:23:37.953Z,8.13
2023-02-18T06:26:04.671Z,5.40
2023-02-18T06:28:31.176Z,11.75
2023-02-18T06:30:57.748Z,10.23
2023-02-18T06:33:24.348Z,4.97
2023-02-18T06:36:00.126Z,10.48
2023-02-18T06:38:27.693Z,7.07
2023-02-18T06:40:54.512Z,2.55
2023-02-18T06:43:21.281Z,4.15
2023-02-18T06:45:47.823Z,7.63
2023-02-18T06:48:14.449Z,4.97
2023-02-18T06:50:43.074Z,7.07
2023-02-18T06:53:10.105Z,6.80
2023-02-18T06:55:36.662Z,4.18
2023-02-18T06:58:03.290Z,4.10
2023-02-18T07:00:29.810Z,5.75
2023-02-18T07:02:56.273Z,7.18
2023-02-18T07:05:22.767Z,5.60
2023-02-18T07:07:49.343Z,5.93
2023-02-18T07:10:16.008Z,8.98
2023-02-18T07:12:42.545Z,4.38
2023-02-18T07:15:09.458Z,5.20
2023-02-18T07:17:35.927Z,3.90
2023-02-18T07:20:03.001Z,5.15
2023-02-18T07:22:29.445Z,5.43
2023-02-18T07:24:56.178Z,3.88
2023-02-18T07:27:23.183Z,4.72
2023-02-18T07:29:49.714Z,5.40
2023-02-18T07:32:18.087Z,2.70
2023-02-18T07:34:44.645Z,5.10
2023-02-18T07:37:12.395Z,3.83
2023-02-18T07:39:43.151Z,5.25
2023-02-18T07:42:11.423Z,4.88
2023-02-18T07:44:38.935Z,5.15
2023-02-18T07:47:06.270Z,4.72
2023-02-18T07:49:33.214Z,4.57
2023-02-18T07:51:59.847Z,2.05
2023-02-18T07:54:26.879Z,2.88
2023-02-18T07:56:54.855Z,3.35
2023-02-18T07:59:21.652Z,3.50
2023-02-18T08:01:48.223Z,3.85
2023-02-18T08:04:15.413Z,6.60
2023-02-18T08:06:47.408Z,5.82
2023-02-18T08:09:14.245Z,5.35
2023-02-18T08:11:40.753Z,4.80
2023-02-18T08:14:07.646Z,5.38
2023-02-18T08:16:34.808Z,4.78
2023-02-18T08:19:03.633Z,3.92
2023-02-18T08:21:30.896Z,4.25
2023-02-18T08:23:58.573Z,4.13
2023-02-18T08:26:25.977Z,5.05
2023-02-18T08:28:52.832Z,3.83
2023-02-18T08:31:30.057Z,3.60
2023-02-18T08:33:58.715Z,3.75
2023-02-18T08:36:25.255Z,2.05
2023-02-18T08:38:51.835Z,2.17
2023-02-18T08:41:21.419Z,3.38
2023-02-18T08:43:48.206Z,2.03
2023-02-18T08:46:15.858Z,4.25
2023-02-18T08:48:43.909Z,3.45
2023-02-18T08:51:13.273Z,3.70
2023-02-18T08:53:40.036Z,2.38
2023-02-18T08:56:08.511Z,2.53
2023-02-18T08:58:37.276Z,2.75
2023-02-18T09:01:07.060Z,4.85
2023-02-18T09:03:34.753Z,3.67
2023-02-18T09:06:01.596Z,5.20
2023-02-18T09:08:28.454Z,3.67
2023-02-18T09:10:59.336Z,4.25
2023-02-18T09:13:26.556Z,4.82
2023-02-18T09:16:06.725Z,2.95
2023-02-18T09:18:37.710Z,4.85
2023-02-18T09:21:07.593Z,4.75
2023-02-18T09:23:35.104Z,3.63
2023-02-18T09:26:04.925Z,4.15
2023-02-18T09:28:31.412Z,4.78
2023-02-18T09:30:57.969Z,4.65
2023-02-18T09:33:24.470Z,4.22
2023-02-18T09:35:50.939Z,7.35
2023-02-18T09:38:17.826Z,7.20
2023-02-18T09:40:48.616Z,5.85
2023-02-18T09:43:22.630Z,8.00
2023-02-18T09:45:51.402Z,5.15
2023-02-18T09:48:17.889Z,5.25
2023-02-18T09:50:52.368Z,4.80
2023-02-18T09:53:19.514Z,6.40
2023-02-18T09:55:46.405Z,5.20
2023-02-18T09:58:18.414Z,4.70
2023-02-18T10:00:50.610Z,5.32
2023-02-18T10:03:21.081Z,4.20
2023-02-18T10:05:58.332Z,7.70
2023-02-18T10:08:32.179Z,7.65
2023-02-18T10:10:58.685Z,7.88
2023-02-18T10:13:29.258Z,3.70
2023-02-18T10:15:56.002Z,3.65
2023-02-18T10:21:14.045Z,6.07
2023-02-18T10:23:47.363Z,6.82
2023-02-18T10:26:17.988Z,4.95
2023-02-18T10:28:45.417Z,5.47
2023-02-18T10:31:18.511Z,4.53
2023-02-18T10:33:54.370Z,3.13
2023-02-18T10:36:35.707Z,4.38
2023-02-18T10:39:25.146Z,5.65
2023-02-18T10:42:06.037Z,5.93
2023-02-18T10:44:44.260Z,3.50
2023-02-18T10:47:39.095Z,5.10
2023-02-18T10:50:42.794Z,5.05
2023-02-18T10:53:34.934Z,3.22
2023-02-18T10:56:01.998Z,6.45
2023-02-18T10:58:37.156Z,6.93
2023-02-18T11:03:42.968Z,5.93
2023-02-18T11:06:19.769Z,4.88
2023-02-18T11:08:47.091Z,8.40
2023-02-18T11:11:24.614Z,8.07
2023-02-18T11:13:57.078Z,8.38
2023-02-18T11:16:35.741Z,5.25
2023-02-18T11:19:04.324Z,6.10
2023-02-18T11:21:36.133Z,7.93
2023-02-18T11:24:20.723Z,5.93
2023-02-18T11:26:47.274Z,12.10
2023-02-18T11:29:20.054Z,4.60
2023-02-18T11:31:49.772Z,9.68
2023-02-18T11:34:32.884Z,8.77
2023-02-18T11:37:23.195Z,12.73
2023-02-18T11:39:54.201Z,11.82
2023-02-18T11:42:24.466Z,8.93
2023-02-18T11:44:59.253Z,8.88
2023-02-18T11:47:37.149Z,7.72
2023-02-18T11:50:09.623Z,9.65
2023-02-18T11:52:41.424Z,11.48
2023-02-18T11:55:27.688Z,10.57
2023-02-18T11:58:00.860Z,11.93
2023-02-18T12:00:37.096Z,7.55
2023-02-18T12:03:15.437Z,12.52
2023-02-18T12:05:44.295Z,10.25
2023-02-18T12:08:19.291Z,13.02
2023-02-18T12:11:05.187Z,6.72
2023-02-18T12:14:04.200Z,5.80
2023-02-18T12:16:54.724Z,8.80
2023-02-18T12:19:27.039Z,9.10
2023-02-18T12:22:26.716Z,14.63
2023-02-18T12:25:14.759Z,12.60
2023-02-18T12:28:00.011Z,10.80
2023-02-18T12:30:58.512Z,9.52
2023-02-18T12:33:27.658Z,15.00
2023-02-18T12:36:03.268Z,6.90
2023-02-18T12:38:55.897Z,12.43
2023-02-18T12:41:35.902Z,11.65
2023-02-18T12:44:33.820Z,11.38
2023-02-18T12:47:24.880Z,8.50
2023-02-18T12:50:19.204Z,12.23
2023-02-18T12:53:18.634Z,14.65
2023-02-18T12:56:01.311Z,10.48
2023-02-18T12:58:49.614Z,12.13
2023-02-18T13:01:38.642Z,9.43
2023-02-18T13:04:23.117Z,18.55
2023-02-18T13:07:07.127Z,17.10
2023-02-18T13:09:36.721Z,14.68
2023-02-18T13:12:11.168Z,10.60
2023-02-18T13:15:01.740Z,10.70
2023-02-18T13:17:34.008Z,13.85
2023-02-18T13:20:05.698Z,5.03
2023-02-18T13:22:33.764Z,13.05
2023-02-18T13:25:00.397Z,11.38
2023-02-18T13:27:29.653Z,12.38
2023-02-18T13:30:10.993Z,14.73
2023-02-18T13:32:48.206Z,16.40
2023-02-18T13:35:34.625Z,13.90
2023-02-18T13:38:04.172Z,10.85
2023-02-18T13:40:32.414Z,19.52
2023-02-18T13:43:20.847Z,7.35
2023-02-18T13:46:17.530Z,23.38
2023-02-18T13:48:52.611Z,19.50
2023-02-18T13:51:40.064Z,21.58
2023-02-18T13:54:13.076Z,16.23
2023-02-18T13:56:58.251Z,9.80
2023-02-18T13:59:42.854Z,17.38
2023-02-18T14:02:21.646Z,19.55
2023-02-18T14:04:55.549Z,16.35
2023-02-18T14:07:25.136Z,23.98
2023-02-18T14:09:53.770Z,20.27
2023-02-18T14:13:03.188Z,15.75
2023-02-18T14:15:29.672Z,23.38
2023-02-18T14:17:58.881Z,17.90
2023-02-18T14:20:39.484Z,13.20
2023-02-18T14:23:19.149Z,17.95
2023-02-18T14:25:57.499Z,15.13
2023-02-18T14:28:38.836Z,15.50
2023-02-18T14:31:22.130Z,22.63
2023-02-18T14:34:23.440Z,26.58
2023-02-18T14:37:24.211Z,28.75
2023-02-18T14:40:23.409Z,20.17
2023-02-18T14:42:57.214Z,23.13
2023-02-18T14:45:26.624Z,28.65
2023-02-18T14:48:08.415Z,26.15
2023-02-18T14:50:38.729Z,17.50
2023-02-18T14:53:08.303Z,17.52
2023-02-18T14:55:37.776Z,31.13
2023-02-18T14:58:32.632Z,13.68
2023-02-18T15:01:06.833Z,22.23
2023-02-18T15:03:33.453Z,28.08
2023-02-18T15:05:59.959Z,27.42
2023-02-18T15:08:26.678Z,30.30
2023-02-18T15:11:07.427Z,18.55
2023-02-18T15:13:37.086Z,22.25
2023-02-18T15:16:08.482Z,19.05
2023-02-18T15:18:42.219Z,29.33
2023-02-18T15:21:17.729Z,14.23
2023-02-18T15:23:44.299Z,31.17
2023-02-18T15:26:16.048Z,19.98
2023-02-18T15:28:54.193Z,33.35
2023-02-18T15:31:26.113Z,27.13
2023-02-18T15:33:52.690Z,31.45
2023-02-18T15:36:19.144Z,25.25
2023-02-18T15:38:45.704Z,16.70
2023-02-18T15:41:15.092Z,26.15
2023-02-18T15:44:01.477Z,16.77
2023-02-18T15:46:28.845Z,20.05
2023-02-18T15:48:57.342Z,23.73
2023-02-18T15:51:28.853Z,14.30
2023-02-18T15:54:02.616Z,19.58
2023-02-18T15:56:40.161Z,15.43
2023-02-18T15:59:20.266Z,28.35
2023-02-18T16:01:51.749Z,18.48
2023-02-18T16:04:19.971Z,19.33
2023-02-18T16:06:50.707Z,18.50
2023-02-18T16:09:30.373Z,16.33
2023-02-18T16:11:59.681Z,9.73
2023-02-18T16:14:46.358Z,9.75
2023-02-18T16:17:12.801Z,25.33
2023-02-18T16:19:46.943Z,24.25
2023-02-18T16:22:34.127Z,20.30
2023-02-18T16:25:06.922Z,11.77
2023-02-18T16:27:36.973Z,23.77
2023-02-18T16:30:17.119Z,8.10
2023-02-18T16:32:43.959Z,13.32
2023-02-18T16:35:12.152Z,17.75
2023-02-18T16:37:39.179Z,12.73
2023-02-18T16:40:39.536Z,14.20
2023-02-18T16:43:15.433Z,9.38
2023-02-18T16:45:44.839Z,11.52
2023-02-18T16:48:34.187Z,13.82
2023-02-18T16:51:13.854Z,9.77
2023-02-18T16:53:40.442Z,8.38
2023-02-18T16:56:14.453Z,13.93
2023-02-18T16:58:41.065Z,8.68
2023-02-18T17:01:19.047Z,10.73
2023-02-18T17:03:48.495Z,14.23
2023-02-18T17:06:15.839Z,6.03
2023-02-18T17:08:42.382Z,9.05
2023-02-18T17:11:25.992Z,16.88
2023-02-18T17:13:53.944Z,15.68
2023-02-18T17:16:21.529Z,12.10
2023-02-18T17:18:48.493Z,8.65
2023-02-18T17:21:18.115Z,12.05
2023-02-18T17:23:45.206Z,7.72
2023-02-18T17:26:16.229Z,12.02
2023-02-18T17:28:42.771Z,9.70
2023-02-18T17:31:15.603Z,10.25
2023-02-18T17:33:42.903Z,13.60
2023-02-18T17:36:11.741Z,5.43
2023-02-18T17:38:39.238Z,13.60
2023-02-18T17:41:06.686Z,11.02
2023-02-18T17:43:33.901Z,9.00
2023-02-18T17:46:00.744Z,12.65
2023-02-18T17:48:28.301Z,20.30
2023-02-18T17:50:54.855Z,8.23
2023-02-18T17:53:21.899Z,7.25
2023-02-18T17:55:49.384Z,11.50
2023-02-18T17:58:16.907Z,18.98
2023-02-18T18:00:47.040Z,12.70
2023-02-18T18:03:14.108Z,9.98
2023-02-18T18:05:43.342Z,12.07
2023-02-18T18:08:10.864Z,11.27
2023-02-18T18:10:40.921Z,12.00
2023-02-18T18:13:12.986Z,11.90
2023-02-18T18:15:41.959Z,11.90
2023-02-18T18:18:10.612Z,18.40
2023-02-18T18:20:38.010Z,16.17
2023-02-18T18:23:06.286Z,11.68
2023-02-18T18:25:37.348Z,7.28
2023-02-18T18:28:05.368Z,11.63
2023-02-18T18:30:35.560Z,13.82
2023-02-18T18:33:03.330Z,16.23
2023-02-18T18:35:32.799Z,5.10
2023-02-18T18:38:00.077Z,9.40
2023-02-18T18:40:29.847Z,9.73
2023-02-18T18:42:57.743Z,15.68
2023-02-18T18:45:24.262Z,8.88
2023-02-18T18:47:51.963Z,10.13
2023-02-18T18:50:20.279Z,11.35
2023-02-18T18:52:48.212Z,12.23
2023-02-18T18:55:26.881Z,19.38
2023-02-18T18:57:53.810Z,7.40
2023-02-18T19:00:24.596Z,15.40
2023-02-18T19:02:51.404Z,7.60
2023-02-18T19:05:25.951Z,12.05
2023-02-18T19:07:53.017Z,11.05
2023-02-18T19:10:20.228Z,18.08
2023-02-18T19:12:47.307Z,16.60
2023-02-18T19:15:17.206Z,15.45
2023-02-18T19:17:48.701Z,13.88
2023-02-18T19:20:17.198Z,11.02
2023-02-18T19:22:43.673Z,19.08
2023-02-18T19:25:10.487Z,18.85
2023-02-18T19:27:39.142Z,17.10
2023-02-18T19:30:07.205Z,27.27
2023-02-18T19:32:34.196Z,25.35
2023-02-18T19:35:00.824Z,14.60
2023-02-18T19:37:31.849Z,18.45
2023-02-18T19:39:58.713Z,14.10
2023-02-18T19:42:25.407Z,23.00
2023-02-18T19:44:55.581Z,14.63
2023-02-18T19:47:24.130Z,20.27
2023-02-18T19:49:51.036Z,19.73
2023-02-18T19:52:18.573Z,16.65
2023-02-18T19:55:05.480Z,16.58
2023-02-18T19:57:32.893Z,23.35
2023-02-18T19:59:59.436Z,14.20
2023-02-18T20:02:26.421Z,16.92
2023-02-18T20:04:54.719Z,21.00
2023-02-18T20:07:22.519Z,15.10
2023-02-18T20:09:53.147Z,26.30
2023-02-18T20:12:20.181Z,11.98
2023-02-18T20:14:46.874Z,10.45
2023-02-18T20:17:13.344Z,18.17
2023-02-18T20:19:40.106Z,18.92
2023-02-18T20:22:07.633Z,17.92
2023-02-18T20:24:34.352Z,13.18
2023-02-18T20:27:02.695Z,12.70
2023-02-18T20:29:29.874Z,12.15
2023-02-18T20:31:56.424Z,17.70
2023-02-18T20:34:22.979Z,16.02
2023-02-18T20:36:50.084Z,24.42
2023-02-18T20:39:17.928Z,13.93
2023-02-18T20:41:46.091Z,20.95
2023-02-18T20:44:13.113Z,14.85
2023-02-18T20:46:40.108Z,16.48
2023-02-18T20:49:08.959Z,11.32
2023-02-18T20:51:35.903Z,12.38
2023-02-18T20:54:09.193Z,15.68
2023-02-18T20:56:39.151Z,10.13
2023-02-18T20:59:05.999Z,11.90
2023-02-18T21:01:32.670Z,12.57
2023-02-18T21:03:59.243Z,14.30
2023-02-18T21:06:25.866Z,17.50
2023-02-18T21:08:54.050Z,9.90
2023-02-18T21:11:23.661Z,8.57
2023-02-18T21:13:51.880Z,13.20
2023-02-18T21:16:20.025Z,15.45
2023-02-18T21:18:46.676Z,17.30
2023-02-18T21:21:14.072Z,15.80
2023-02-18T21:23:41.029Z,9.15
2023-02-18T21:26:11.301Z,15.48
2023-02-18T21:28:39.008Z,18.20
2023-02-18T21:31:13.954Z,17.67
2023-02-18T21:33:40.531Z,12.63
2023-02-18T21:36:07.270Z,11.35
2023-02-18T21:38:34.295Z,16.77
2023-02-18T21:41:00.834Z,13.90
2023-02-18T21:43:27.326Z,18.50
2023-02-18T21:45:53.779Z,17.83
2023-02-18T21:48:38.932Z,13.20
2023-02-18T21:51:05.536Z,16.75
2023-02-18T21:53:32.032Z,15.75
2023-02-18T21:56:08.978Z,11.82
2023-02-18T21:58:35.458Z,12.60
2023-02-18T22:01:01.985Z,9.65
2023-02-18T22:03:28.466Z,13.95
2023-02-18T22:05:55.043Z,15.95
2023-02-18T22:08:25.540Z,9.98
2023-02-18T22:10:52.014Z,10.82
2023-02-18T22:13:18.503Z,11.40
2023-02-18T22:15:44.949Z,17.35
2023-02-18T22:18:11.466Z,12.32
2023-02-18T22:20:39.023Z,14.82
2023-02-18T22:23:05.541Z,9.73
2023-02-18T22:25:32.001Z,13.50
2023-02-18T22:27:58.489Z,16.73
2023-02-18T22:30:25.058Z,8.20
2023-02-18T22:32:51.541Z,19.67
2023-02-18T22:35:18.167Z,13.95
2023-02-18T22:37:44.633Z,13.18
2023-02-18T22:40:11.279Z,11.60
2023-02-18T22:42:37.822Z,18.95
2023-02-18T22:45:04.666Z,14.38
2023-02-18T22:47:31.181Z,11.48
2023-02-18T22:49:57.632Z,14.50
2023-02-18T22:52:24.160Z,10.95
2023-02-18T22:54:50.677Z,18.52
2023-02-18T22:57:17.217Z,21.42
2023-02-18T22:59:43.749Z,16.30
2023-02-18T23:02:10.394Z,16.65
2023-02-18T23:04:39.673Z,20.83
2023-02-18T23:07:06.286Z,17.10
2023-02-18T23:09:32.869Z,18.38
2023-02-18T23:11:59.507Z,17.20
2023-02-18T23:14:28.110Z,13.10
2023-02-18T23:17:15.946Z,17.80
2023-02-18T23:19:47.864Z,13.38
2023-02-18T23:22:28.570Z,11.73
2023-02-18T23:24:55.117Z,15.63
2023-02-18T23:27:23.184Z,12.40
2023-02-18T23:29:49.746Z,5.95
2023-02-18T23:32:16.705Z,15.85
2023-02-18T23:34:43.234Z,12.38
2023-02-18T23:37:10.258Z,18.85
2023-02-18T23:39:36.995Z,15.23
2023-02-18T23:42:03.623Z,12.48
2023-02-18T23:44:30.274Z,11.60
2023-02-18T23:46:56.790Z,11.70
2023-02-18T23:49:25.683Z,13.13
2023-02-18T23:51:54.154Z,19.20
2023-02-18T23:54:21.404Z,18.95
2023-02-18T23:56:48.084Z,24.92
2023-02-18T23:59:14.575Z,19.33
